createdAt,value
2022-09-10T00:01:42.276Z,15.99
2022-09-10T00:04:13.115Z,15.93
2022-09-10T00:06:43.650Z,15.91
2022-09-10T00:09:13.543Z,15.90
2022-09-10T00:12:01.831Z,15.89
2022-09-10T00:14:30.850Z,15.88
2022-09-10T00:16:58.688Z,15.91
2022-09-10T00:19:27.411Z,15.93
2022-09-10T00:21:57.736Z,15.93
2022-09-10T00:24:32.160Z,15.96
2022-09-10T00:27:01.221Z,15.98
2022-09-10T00:29:32.360Z,15.99
2022-09-10T00:32:07.637Z,15.98
2022-09-10T00:34:36.086Z,15.96
2022-09-10T00:37:06.885Z,15.96
2022-09-10T00:39:38.735Z,15.94
2022-09-10T00:42:11.265Z,15.92
2022-09-10T00:44:47.622Z,15.90
2022-09-10T00:47:42.166Z,15.89
2022-09-10T00:50:40.822Z,15.87
2022-09-10T00:53:15.507Z,15.81
2022-09-10T00:55:52.809Z,15.77
2022-09-10T00:58:23.990Z,15.75
2022-09-10T01:00:57.211Z,15.76
2022-09-10T01:03:32.594Z,15.75
2022-09-10T01:06:03.380Z,15.71
2022-09-10T01:08:30.812Z,15.71
2022-09-10T01:11:20.684Z,15.72
2022-09-10T01:14:17.599Z,15.72
2022-09-10T01:17:06.856Z,15.69
2022-09-10T01:20:14.356Z,15.67
2022-09-10T01:22:49.108Z,15.66
2022-09-10T01:25:38.863Z,15.62
2022-09-10T01:28:19.245Z,15.61
2022-09-10T01:30:57.840Z,15.59
2022-09-10T01:33:37.511Z,15.59
2022-09-10T01:36:16.047Z,15.58
2022-09-10T01:38:46.653Z,15.59
2022-09-10T01:41:16.143Z,15.61
2022-09-10T01:43:47.502Z,15.66
2022-09-10T01:46:57.363Z,15.68
2022-09-10T01:49:57.140Z,15.66
2022-09-10T01:52:42.321Z,15.63
2022-09-10T01:55:31.195Z,15.62
2022-09-10T01:58:04.981Z,15.62
2022-09-10T02:00:45.825Z,15.59
2022-09-10T02:03:19.963Z,15.57
2022-09-10T02:05:54.515Z,15.58
2022-09-10T02:08:31.031Z,15.59
2022-09-10T02:11:05.734Z,15.59
2022-09-10T02:13:37.385Z,15.61
2022-09-10T02:16:35.514Z,15.61
2022-09-10T02:19:07.112Z,15.62
2022-09-10T02:21:36.310Z,15.62
2022-09-10T02:24:12.659Z,15.61
2022-09-10T02:26:43.982Z,15.63
2022-09-10T02:29:15.571Z,15.61
2022-09-10T02:31:46.786Z,15.61
2022-09-10T02:34:16.005Z,15.62
2022-09-10T02:36:49.623Z,15.61
2022-09-10T02:39:19.822Z,15.59
2022-09-10T02:41:48.426Z,15.59
2022-09-10T02:44:17.756Z,15.58
2022-09-10T02:46:47.684Z,15.59
2022-09-10T02:49:18.441Z,15.61
2022-09-10T02:51:48.658Z,15.62
2022-09-10T02:54:19.289Z,15.61
2022-09-10T02:57:07.733Z,15.62
2022-09-10T02:59:36.613Z,15.57
2022-09-10T03:02:04.927Z,15.61
2022-09-10T03:04:33.938Z,15.63
2022-09-10T03:07:04.597Z,15.66
2022-09-10T03:09:32.114Z,15.68
2022-09-10T03:12:01.661Z,15.68
2022-09-10T03:14:31.480Z,15.68
2022-09-10T03:16:59.930Z,15.68
2022-09-10T03:19:27.240Z,15.67
2022-09-10T03:21:54.952Z,15.65
2022-09-10T03:24:22.180Z,15.63
2022-09-10T03:26:49.944Z,15.64
2022-09-10T03:29:22.303Z,15.65
2022-09-10T03:31:51.586Z,15.68
2022-09-10T03:34:20.228Z,15.70
2022-09-10T03:36:48.887Z,15.68
2022-09-10T03:39:15.900Z,15.65
2022-09-10T03:41:45.061Z,15.63
2022-09-10T03:44:14.500Z,15.61
2022-09-10T03:46:41.386Z,15.58
2022-09-10T03:49:09.723Z,15.59
2022-09-10T03:51:37.464Z,15.63
2022-09-10T03:54:05.958Z,15.67
2022-09-10T03:56:34.531Z,15.70
2022-09-10T03:59:02.450Z,15.70
2022-09-10T04:01:29.889Z,15.68
2022-09-10T04:03:58.522Z,15.67
2022-09-10T04:06:27.589Z,15.61
2022-09-10T04:08:56.197Z,15.59
2022-09-10T04:11:26.834Z,15.61
2022-09-10T04:13:56.404Z,15.63
2022-09-10T04:16:24.704Z,15.63
2022-09-10T04:18:51.883Z,15.60
2022-09-10T04:21:20.084Z,15.59
2022-09-10T04:23:56.532Z,15.57
2022-09-10T04:26:26.732Z,15.55
2022-09-10T04:28:54.971Z,15.54
2022-09-10T04:31:23.775Z,15.53
2022-09-10T04:33:54.942Z,15.49
2022-09-10T04:36:29.588Z,15.49
2022-09-10T04:38:59.926Z,15.49
2022-09-10T04:41:27.472Z,15.47
2022-09-10T04:43:54.977Z,15.46
2022-09-10T04:46:25.689Z,15.49
2022-09-10T04:48:54.585Z,15.53
2022-09-10T04:51:24.520Z,15.54
2022-09-10T04:53:53.414Z,15.54
2022-09-10T04:56:23.430Z,15.55
2022-09-10T04:58:53.890Z,15.55
2022-09-10T05:01:23.862Z,15.56
2022-09-10T05:03:52.597Z,15.58
2022-09-10T05:06:19.860Z,15.62
2022-09-10T05:08:48.875Z,15.65
2022-09-10T05:11:19.121Z,15.68
2022-09-10T05:13:48.857Z,15.70
2022-09-10T05:16:20.991Z,15.71
2022-09-10T05:18:47.823Z,15.73
2022-09-10T05:21:18.038Z,15.73
2022-09-10T05:23:46.061Z,15.74
2022-09-10T05:26:14.039Z,15.76
2022-09-10T05:28:41.978Z,15.82
2022-09-10T05:31:12.497Z,15.86
2022-09-10T05:33:41.047Z,15.93
2022-09-10T05:36:10.469Z,16.00
2022-09-10T05:38:40.189Z,16.09
2022-09-10T05:41:11.297Z,16.12
2022-09-10T05:43:43.976Z,16.14
2022-09-10T05:46:11.861Z,16.15
2022-09-10T05:48:43.046Z,16.19
2022-09-10T05:51:11.642Z,16.20
2022-09-10T05:53:42.447Z,16.21
2022-09-10T05:56:12.426Z,16.22
2022-09-10T05:58:41.109Z,16.23
2022-09-10T06:01:10.571Z,16.29
2022-09-10T06:03:38.081Z,16.38
2022-09-10T06:06:06.509Z,16.53
2022-09-10T06:08:35.322Z,16.66
2022-09-10T06:11:09.902Z,16.83
2022-09-10T06:13:41.581Z,16.98
2022-09-10T06:16:09.223Z,17.11
2022-09-10T06:18:37.646Z,17.23
2022-09-10T06:21:11.306Z,17.30
2022-09-10T06:23:38.875Z,17.34
2022-09-10T06:26:17.834Z,17.40
2022-09-10T06:28:52.380Z,17.46
2022-09-10T06:31:19.850Z,17.50
2022-09-10T06:33:48.567Z,17.52
2022-09-10T06:36:35.796Z,17.55
2022-09-10T06:39:03.965Z,17.52
2022-09-10T06:41:42.309Z,17.52
2022-09-10T06:44:14.693Z,17.53
2022-09-10T06:49:35.871Z,17.55
2022-09-10T06:52:03.098Z,17.54
2022-09-10T06:54:31.478Z,17.51
2022-09-10T06:57:13.253Z,17.50
2022-09-10T06:59:41.431Z,17.49
2022-09-10T07:02:09.158Z,17.50
2022-09-10T07:04:36.430Z,17.53
2022-09-10T07:07:03.374Z,17.55
2022-09-10T07:09:31.385Z,17.55
2022-09-10T07:11:59.719Z,17.53
2022-09-10T07:14:30.347Z,17.54
2022-09-10T07:16:58.821Z,17.57
2022-09-10T07:19:30.230Z,17.61
2022-09-10T07:21:58.535Z,17.66
2022-09-10T07:24:25.212Z,17.69
2022-09-10T07:27:10.694Z,17.75
2022-09-10T07:29:38.472Z,17.78
2022-09-10T07:32:13.446Z,17.82
2022-09-10T07:34:40.594Z,17.86
2022-09-10T07:37:07.375Z,17.86
2022-09-10T07:39:35.101Z,17.87
2022-09-10T07:42:02.476Z,17.91
2022-09-10T07:44:35.372Z,17.95
2022-09-10T07:47:03.063Z,18.04
2022-09-10T07:49:30.909Z,18.11
2022-09-10T07:52:00.004Z,18.22
2022-09-10T07:54:32.423Z,18.32
2022-09-10T07:57:00.583Z,18.41
2022-09-10T07:59:29.848Z,18.54
2022-09-10T08:02:00.462Z,18.66
2022-09-10T08:04:37.262Z,18.73
2022-09-10T08:07:08.449Z,18.78
2022-09-10T08:09:38.574Z,18.85
2022-09-10T08:12:07.358Z,18.93
2022-09-10T08:14:37.612Z,19.04
2022-09-10T08:17:05.050Z,19.18
2022-09-10T08:19:36.199Z,19.28
2022-09-10T08:22:03.649Z,19.30
2022-09-10T08:24:38.624Z,19.27
2022-09-10T08:27:07.599Z,19.23
2022-09-10T08:29:34.471Z,19.26
2022-09-10T08:32:01.738Z,19.37
2022-09-10T08:34:31.189Z,19.46
2022-09-10T08:37:07.282Z,19.46
2022-09-10T08:39:36.723Z,19.40
2022-09-10T08:42:08.818Z,19.38
2022-09-10T08:44:49.705Z,19.36
2022-09-10T08:47:43.221Z,19.39
2022-09-10T08:50:28.770Z,19.41
2022-09-10T08:53:04.760Z,19.47
2022-09-10T08:55:35.631Z,19.63
2022-09-10T08:58:23.005Z,19.79
2022-09-10T09:00:57.186Z,19.91
2022-09-10T09:03:38.955Z,19.88
2022-09-10T09:06:21.545Z,19.91
2022-09-10T09:08:51.312Z,20.05
2022-09-10T09:11:34.310Z,20.26
2022-09-10T09:14:25.657Z,20.40
2022-09-10T09:17:26.168Z,20.52
2022-09-10T09:20:04.186Z,20.63
2022-09-10T09:23:04.619Z,20.68
2022-09-10T09:25:45.504Z,20.80
2022-09-10T09:28:36.231Z,20.77
2022-09-10T09:31:22.510Z,20.64
2022-09-10T09:33:56.714Z,20.54
2022-09-10T09:36:34.889Z,20.57
2022-09-10T09:39:16.615Z,20.69
2022-09-10T09:41:52.443Z,20.80
2022-09-10T09:44:31.480Z,20.91
2022-09-10T09:46:58.923Z,20.95
2022-09-10T09:49:26.370Z,20.90
2022-09-10T09:51:55.179Z,20.91
2022-09-10T09:57:19.868Z,20.91
2022-09-10T09:59:49.296Z,20.90
2022-09-10T10:02:19.397Z,20.94
2022-09-10T10:05:04.996Z,20.97
2022-09-10T10:07:35.506Z,21.04
2022-09-10T10:10:07.439Z,21.11
2022-09-10T10:12:47.685Z,21.17
2022-09-10T10:15:42.069Z,21.16
2022-09-10T10:18:23.819Z,21.17
2022-09-10T10:21:09.922Z,21.30
2022-09-10T10:23:38.436Z,21.47
2022-09-10T10:26:20.300Z,21.59
2022-09-10T10:28:49.135Z,21.69
2022-09-10T10:31:16.543Z,21.79
2022-09-10T10:34:03.991Z,21.91
2022-09-10T10:37:01.771Z,22.07
2022-09-10T10:39:45.134Z,22.24
2022-09-10T10:42:23.989Z,22.29
2022-09-10T10:45:08.567Z,22.29
2022-09-10T10:48:11.395Z,22.26
2022-09-10T10:50:54.325Z,22.18
2022-09-10T10:53:48.076Z,22.03
2022-09-10T10:56:29.261Z,21.95
2022-09-10T10:59:18.426Z,21.93
2022-09-10T11:02:32.930Z,21.90
2022-09-10T11:05:21.579Z,21.85
2022-09-10T11:07:49.623Z,21.83
2022-09-10T11:10:43.163Z,21.81
2022-09-10T11:13:34.995Z,21.92
2022-09-10T11:16:09.281Z,22.07
2022-09-10T11:18:46.818Z,22.14
2022-09-10T11:21:35.058Z,22.20
2022-09-10T11:24:17.330Z,22.25
2022-09-10T11:26:53.503Z,22.33
2022-09-10T11:29:38.822Z,22.42
2022-09-10T11:32:18.071Z,22.61
2022-09-10T11:34:50.513Z,22.72
2022-09-10T11:37:26.195Z,22.84
2022-09-10T11:39:57.841Z,22.94
2022-09-10T11:42:25.147Z,22.99
2022-09-10T11:45:07.415Z,22.96
2022-09-10T11:47:42.499Z,22.78
2022-09-10T11:50:32.280Z,22.58
2022-09-10T11:53:03.323Z,22.34
2022-09-10T11:55:59.547Z,22.24
2022-09-10T11:58:44.252Z,22.27
2022-09-10T12:01:19.798Z,22.25
2022-09-10T12:04:14.524Z,22.40
2022-09-10T12:07:26.217Z,22.68
2022-09-10T12:10:14.660Z,22.97
2022-09-10T12:12:49.747Z,23.30
2022-09-10T12:15:21.781Z,23.61
2022-09-10T12:17:54.744Z,23.92
2022-09-10T12:20:29.900Z,24.04
2022-09-10T12:22:58.150Z,23.90
2022-09-10T12:25:34.219Z,23.68
2022-09-10T12:28:08.268Z,23.40
2022-09-10T12:30:38.633Z,23.22
2022-09-10T12:33:12.638Z,23.07
2022-09-10T12:35:49.952Z,22.91
2022-09-10T12:38:45.149Z,22.72
2022-09-10T12:41:20.606Z,22.57
2022-09-10T12:44:34.264Z,22.47
2022-09-10T12:47:13.371Z,22.37
2022-09-10T12:49:57.728Z,22.29
2022-09-10T12:52:27.798Z,22.22
2022-09-10T12:55:02.730Z,22.21
2022-09-10T12:58:08.286Z,22.23
2022-09-10T13:01:17.569Z,22.25
2022-09-10T13:03:58.139Z,22.25
2022-09-10T13:06:39.159Z,22.26
2022-09-10T13:09:19.198Z,22.18
2022-09-10T13:11:50.654Z,22.15
2022-09-10T13:14:23.669Z,22.13
2022-09-10T13:16:50.131Z,22.12
2022-09-10T13:19:20.052Z,22.06
2022-09-10T13:21:48.676Z,22.03
2022-09-10T13:24:33.953Z,22.01
2022-09-10T13:27:12.631Z,22.02
2022-09-10T13:29:43.631Z,22.05
2022-09-10T13:32:37.596Z,22.08
2022-09-10T13:35:16.926Z,22.09
2022-09-10T13:37:59.827Z,22.13
2022-09-10T13:40:48.170Z,22.22
2022-09-10T13:43:37.429Z,22.36
2022-09-10T13:46:10.079Z,22.53
2022-09-10T13:48:50.466Z,22.72
2022-09-10T13:51:28.374Z,22.94
2022-09-10T13:54:08.504Z,23.08
2022-09-10T13:56:36.690Z,23.15
2022-09-10T13:59:04.673Z,23.14
2022-09-10T14:01:54.470Z,23.11
2022-09-10T14:04:34.966Z,23.11
2022-09-10T14:07:25.128Z,23.13
2022-09-10T14:09:56.110Z,23.13
2022-09-10T14:12:27.022Z,23.16
2022-09-10T14:14:58.625Z,23.32
2022-09-10T14:17:34.426Z,23.61
2022-09-10T14:20:22.681Z,23.96
2022-09-10T14:22:57.997Z,24.48
2022-09-10T14:25:30.496Z,25.01
2022-09-10T14:28:15.634Z,25.48
2022-09-10T14:30:45.432Z,25.98
2022-09-10T14:33:25.116Z,26.47
2022-09-10T14:35:52.565Z,26.98
2022-09-10T14:38:28.744Z,27.18
2022-09-10T14:41:16.547Z,27.44
2022-09-10T14:43:43.284Z,27.76
2022-09-10T14:46:32.422Z,28.04
2022-09-10T14:48:59.038Z,28.25
2022-09-10T14:51:27.380Z,28.31
2022-09-10T14:53:56.612Z,28.47
2022-09-10T14:56:32.268Z,28.63
2022-09-10T14:59:12.644Z,28.75
2022-09-10T15:01:44.874Z,28.84
2022-09-10T15:04:22.907Z,28.93
2022-09-10T15:06:57.478Z,29.10
2022-09-10T15:09:26.634Z,29.24
2022-09-10T15:11:58.464Z,29.43
2022-09-10T15:14:25.657Z,29.54
2022-09-10T15:16:52.258Z,29.64
2022-09-10T15:19:19.222Z,29.64
2022-09-10T15:21:46.141Z,29.38
2022-09-10T15:24:16.522Z,29.02
2022-09-10T15:26:43.732Z,28.52
2022-09-10T15:29:11.134Z,28.07
2022-09-10T15:45:28.304Z,25.51
2022-09-10T15:57:00.433Z,24.55
2022-09-10T15:59:27.745Z,24.26
2022-09-10T16:01:54.229Z,24.13
2022-09-10T16:04:21.249Z,23.90
2022-09-10T16:06:47.908Z,23.40
2022-09-10T16:09:15.108Z,22.88
2022-09-10T16:11:42.928Z,22.49
2022-09-10T16:14:12.988Z,22.26
2022-09-10T16:16:41.032Z,22.01
2022-09-10T16:19:08.790Z,21.89
2022-09-10T16:21:37.495Z,21.76
2022-09-10T16:24:06.330Z,21.67
2022-09-10T16:26:36.784Z,21.50
2022-09-10T16:29:06.406Z,21.30
2022-09-10T16:31:38.921Z,21.07
2022-09-10T16:34:09.579Z,20.83
2022-09-10T16:36:37.417Z,20.47
2022-09-10T16:39:11.426Z,20.11
2022-09-10T16:41:40.178Z,19.80
2022-09-10T16:44:08.497Z,19.52
2022-09-10T16:46:35.411Z,19.27
2022-09-10T16:49:02.093Z,19.05
2022-09-10T16:51:29.067Z,18.72
2022-09-10T16:54:02.552Z,17.99
2022-09-10T16:56:37.211Z,17.30
2022-09-10T16:59:07.272Z,16.75
2022-09-10T17:01:37.809Z,16.42
2022-09-10T17:04:06.539Z,16.26
2022-09-10T17:06:34.541Z,16.19
2022-09-10T17:09:02.005Z,16.11
2022-09-10T17:11:31.234Z,15.97
2022-09-10T17:14:00.760Z,15.82
2022-09-10T17:16:33.500Z,15.68
2022-09-10T17:19:11.039Z,15.62
2022-09-10T17:21:40.339Z,15.60
2022-09-10T17:24:08.039Z,15.60
2022-09-10T17:26:36.891Z,15.62
2022-09-10T17:29:08.803Z,15.60
2022-09-10T17:31:35.800Z,15.70
2022-09-10T17:34:03.270Z,15.72
2022-09-10T17:36:30.851Z,15.76
2022-09-10T17:38:58.834Z,15.85
2022-09-10T17:41:27.684Z,15.90
2022-09-10T17:43:56.103Z,15.88
2022-09-10T17:46:23.620Z,15.86
2022-09-10T17:48:51.559Z,15.87
2022-09-10T17:51:30.405Z,15.90
2022-09-10T17:53:57.756Z,15.88
2022-09-10T17:56:32.394Z,15.83
2022-09-10T17:59:01.273Z,15.72
2022-09-10T18:01:30.299Z,15.70
2022-09-10T18:03:56.983Z,15.72
2022-09-10T18:06:24.840Z,15.69
2022-09-10T18:08:51.443Z,15.69
2022-09-10T18:11:22.448Z,15.74
2022-09-10T18:13:51.823Z,15.79
2022-09-10T18:16:20.924Z,15.75
2022-09-10T18:18:55.375Z,15.76
2022-09-10T18:21:23.582Z,15.78
2022-09-10T18:23:55.866Z,15.79
2022-09-10T18:26:25.570Z,15.84
2022-09-10T18:28:59.179Z,15.89
2022-09-10T18:31:29.323Z,15.87
2022-09-10T18:33:58.252Z,15.86
2022-09-10T18:36:26.655Z,15.88
2022-09-10T18:38:52.946Z,15.94
2022-09-10T18:41:24.023Z,16.00
2022-09-10T18:43:52.635Z,16.09
2022-09-10T18:46:20.241Z,16.11
2022-09-10T18:48:47.427Z,16.09
2022-09-10T18:51:15.678Z,16.08
2022-09-10T18:53:44.598Z,16.03
2022-09-10T18:56:36.791Z,16.03
2022-09-10T18:59:06.648Z,16.00
2022-09-10T19:01:35.271Z,15.89
2022-09-10T19:04:06.371Z,15.83
2022-09-10T19:06:36.252Z,15.77
2022-09-10T19:09:10.320Z,15.72
2022-09-10T19:11:39.765Z,15.67
2022-09-10T19:14:13.797Z,15.67
2022-09-10T19:16:41.022Z,15.64
2022-09-10T19:19:14.827Z,15.63
2022-09-10T19:21:42.950Z,15.64
2022-09-10T19:24:09.333Z,15.64
2022-09-10T19:26:36.252Z,15.66
2022-09-10T19:29:03.996Z,15.67
2022-09-10T19:31:33.807Z,15.69
2022-09-10T19:34:05.464Z,15.72
2022-09-10T19:36:35.107Z,15.71
2022-09-10T19:39:07.641Z,15.71
2022-09-10T19:41:35.960Z,15.72
2022-09-10T19:44:04.171Z,15.71
2022-09-10T19:46:30.877Z,15.70
2022-09-10T19:48:59.169Z,15.66
2022-09-10T19:51:28.883Z,15.66
2022-09-10T19:53:56.404Z,15.68
2022-09-10T19:56:25.917Z,15.69
2022-09-10T19:58:55.010Z,15.69
2022-09-10T20:01:24.678Z,15.70
2022-09-10T20:03:53.260Z,15.68
2022-09-10T20:06:23.513Z,15.67
2022-09-10T20:08:50.055Z,15.67
2022-09-10T20:11:20.263Z,15.63
2022-09-10T20:13:48.213Z,15.66
2022-09-10T20:16:16.924Z,15.69
2022-09-10T20:18:44.280Z,15.65
2022-09-10T20:21:14.493Z,15.60
2022-09-10T20:23:43.580Z,15.55
2022-09-10T20:26:11.391Z,15.55
2022-09-10T20:28:38.230Z,15.50
2022-09-10T20:31:10.232Z,15.46
2022-09-10T20:33:40.880Z,15.42
2022-09-10T20:36:14.569Z,15.37
2022-09-10T20:38:42.842Z,15.37
2022-09-10T20:41:11.186Z,15.38
2022-09-10T20:43:38.666Z,15.38
2022-09-10T20:46:08.537Z,15.36
2022-09-10T20:48:34.864Z,15.37
2022-09-10T20:51:03.298Z,15.38
2022-09-10T20:53:34.788Z,15.41
2022-09-10T20:56:07.433Z,15.41
2022-09-10T20:58:36.688Z,15.38
2022-09-10T21:01:11.478Z,15.36
2022-09-10T21:03:43.066Z,15.32
2022-09-10T21:06:11.774Z,15.33
2022-09-10T21:08:40.425Z,15.32
2022-09-10T21:11:13.327Z,15.30
2022-09-10T21:13:50.643Z,15.26
2022-09-10T21:16:22.649Z,15.22
2022-09-10T21:18:54.583Z,15.18
2022-09-10T21:21:24.810Z,15.11
2022-09-10T21:23:53.735Z,15.09
2022-09-10T21:26:22.927Z,15.09
2022-09-10T21:28:57.620Z,15.09
2022-09-10T21:31:28.822Z,15.08
2022-09-10T21:34:01.892Z,15.10
2022-09-10T21:36:30.778Z,15.09
2022-09-10T21:38:59.738Z,15.08
2022-09-10T21:41:30.474Z,15.06
2022-09-10T21:43:58.550Z,15.02
2022-09-10T21:46:26.318Z,15.00
2022-09-10T21:48:53.331Z,14.97
2022-09-10T21:51:21.770Z,14.96
2022-09-10T21:53:54.600Z,14.94
2022-09-10T21:56:22.287Z,14.91
2022-09-10T21:58:50.289Z,14.89
2022-09-10T22:01:19.792Z,14.88
2022-09-10T22:03:48.037Z,14.85
2022-09-10T22:06:20.978Z,14.81
2022-09-10T22:08:49.584Z,14.79
2022-09-10T22:11:23.727Z,14.76
2022-09-10T22:13:53.551Z,14.73
2022-09-10T22:16:21.935Z,14.68
2022-09-10T22:18:49.767Z,14.65
2022-09-10T22:21:17.122Z,14.63
2022-09-10T22:23:44.398Z,14.61
2022-09-10T22:26:14.516Z,14.59
2022-09-10T22:28:43.031Z,14.57
2022-09-10T22:31:21.400Z,14.56
2022-09-10T22:33:53.565Z,14.54
2022-09-10T22:36:26.372Z,14.55
2022-09-10T22:38:58.629Z,14.55
2022-09-10T22:41:26.633Z,14.55
2022-09-10T22:43:53.548Z,14.54
2022-09-10T22:46:22.092Z,14.52
2022-09-10T22:48:48.466Z,14.47
2022-09-10T22:51:18.293Z,14.44
2022-09-10T22:53:45.993Z,14.40
2022-09-10T22:56:14.256Z,14.36
2022-09-10T22:58:42.209Z,14.33
2022-09-10T23:01:13.881Z,14.30
2022-09-10T23:03:42.166Z,14.26
2022-09-10T23:06:14.486Z,14.24
2022-09-10T23:08:46.395Z,14.22
2022-09-10T23:11:48.051Z,14.19
2022-09-10T23:14:19.408Z,14.17
2022-09-10T23:16:48.870Z,14.17
2022-09-10T23:19:18.594Z,14.16
2022-09-10T23:21:48.274Z,14.14
2022-09-10T23:24:18.288Z,14.12
2022-09-10T23:26:45.177Z,14.10
2022-09-10T23:29:12.816Z,14.09
2022-09-10T23:31:40.333Z,14.11
2022-09-10T23:34:11.566Z,14.12
2022-09-10T23:36:42.639Z,14.15
2022-09-10T23:39:15.986Z,14.17
2022-09-10T23:41:43.442Z,14.21
2022-09-10T23:44:10.806Z,14.21
2022-09-10T23:46:38.275Z,14.21
2022-09-10T23:49:06.931Z,14.22
2022-09-10T23:51:34.455Z,14.22
2022-09-10T23:54:02.285Z,14.22
2022-09-10T23:56:29.092Z,14.22
2022-09-10T23:58:59.055Z,14.22
